sensor_id;sensor_type;location;lat;lon;timestamp;temperature;humidity
47520;DHT22;33252;48.122;11.538;2024-03-17T00:02:10;9.00;99.90
47520;DHT22;33252;48.122;11.538;2024-03-17T00:04:36;9.00;99.90
47520;DHT22;33252;48.122;11.538;2024-03-17T00:07:02;9.00;99.90
47520;DHT22;33252;48.122;11.538;2024-03-17T00:09:27;8.90;99.90
47520;DHT22;33252;48.122;11.538;2024-03-17T00:11:53;8.90;99.90
47520;DHT22;33252;48.122;11.538;2024-03-17T00:14:18;8.90;99.90
47520;DHT22;33252;48.122;11.538;2024-03-17T00:16:44;8.90;99.90
47520;DHT22;33252;48.122;11.538;2024-03-17T00:19:10;8.80;99.90
47520;DHT22;33252;48.122;11.538;2024-03-17T00:21:35;8.80;99.90
47520;DHT22;33252;48.122;11.538;2024-03-17T00:24:01;8.80;99.90
47520;DHT22;33252;48.122;11.538;2024-03-17T00:26:28;8.80;99.90
47520;DHT22;33252;48.122;11.538;2024-03-17T00:28:55;8.80;99.90
47520;DHT22;33252;48.122;11.538;2024-03-17T00:31:20;8.80;99.90
47520;DHT22;33252;48.122;11.538;2024-03-17T00:33:46;8.80;99.90
47520;DHT22;33252;48.122;11.538;2024-03-17T00:36:12;8.80;99.90
47520;DHT22;33252;48.122;11.538;2024-03-17T00:38:37;8.80;99.90
47520;DHT22;33252;48.122;11.538;2024-03-17T00:41:03;8.80;99.90
47520;DHT22;33252;48.122;11.538;2024-03-17T00:43:29;8.80;99.90
47520;DHT22;33252;48.122;11.538;2024-03-17T00:45:55;8.80;99.90
47520;DHT22;33252;48.122;11.538;2024-03-17T00:48:20;8.80;99.90
47520;DHT22;33252;48.122;11.538;2024-03-17T00:50:46;8.80;99.90
47520;DHT22;33252;48.122;11.538;2024-03-17T00:53:11;8.90;99.90
47520;DHT22;33252;48.122;11.538;2024-03-17T00:55:37;8.90;99.90
47520;DHT22;33252;48.122;11.538;2024-03-17T00:58:03;8.80;99.90
47520;DHT22;33252;48.122;11.538;2024-03-17T01:00:29;8.80;99.90
47520;DHT22;33252;48.122;11.538;2024-03-17T01:02:55;8.80;99.90
47520;DHT22;33252;48.122;11.538;2024-03-17T01:05:21;8.80;99.90
47520;DHT22;33252;48.122;11.538;2024-03-17T01:07:47;8.80;99.90
47520;DHT22;33252;48.122;11.538;2024-03-17T01:10:14;8.80;99.90
47520;DHT22;33252;48.122;11.538;2024-03-17T01:12:39;8.90;99.90
47520;DHT22;33252;48.122;11.538;2024-03-17T01:15:05;8.70;99.90
47520;DHT22;33252;48.122;11.538;2024-03-17T01:17:31;8.70;99.90
47520;DHT22;33252;48.122;11.538;2024-03-17T01:19:57;8.70;99.90
47520;DHT22;33252;48.122;11.538;2024-03-17T01:22:23;8.70;99.90
47520;DHT22;33252;48.122;11.538;2024-03-17T01:24:48;8.70;99.90
47520;DHT22;33252;48.122;11.538;2024-03-17T01:27:14;8.70;99.90
47520;DHT22;33252;48.122;11.538;2024-03-17T01:29:42;8.70;99.90
47520;DHT22;33252;48.122;11.538;2024-03-17T01:32:08;8.80;99.90
47520;DHT22;33252;48.122;11.538;2024-03-17T01:34:34;8.70;99.90
47520;DHT22;33252;48.122;11.538;2024-03-17T01:36:59;8.70;99.90
47520;DHT22;33252;48.122;11.538;2024-03-17T01:39:25;8.60;99.90
47520;DHT22;33252;48.122;11.538;2024-03-17T01:41:51;8.60;99.90
47520;DHT22;33252;48.122;11.538;2024-03-17T01:44:24;8.40;99.90
47520;DHT22;33252;48.122;11.538;2024-03-17T01:46:50;8.40;99.90
47520;DHT22;33252;48.122;11.538;2024-03-17T01:49:17;8.50;99.90
47520;DHT22;33252;48.122;11.538;2024-03-17T01:51:43;8.40;99.90
47520;DHT22;33252;48.122;11.538;2024-03-17T01:54:09;8.40;99.90
47520;DHT22;33252;48.122;11.538;2024-03-17T01:56:34;8.40;99.90
47520;DHT22;33252;48.122;11.538;2024-03-17T01:59:01;8.40;99.90
47520;DHT22;33252;48.122;11.538;2024-03-17T02:01:26;8.40;99.90
47520;DHT22;33252;48.122;11.538;2024-03-17T02:03:52;8.40;99.90
47520;DHT22;33252;48.122;11.538;2024-03-17T02:06:18;8.30;99.90
47520;DHT22;33252;48.122;11.538;2024-03-17T02:08:47;8.40;99.90
47520;DHT22;33252;48.122;11.538;2024-03-17T02:11:28;8.40;99.90
47520;DHT22;33252;48.122;11.538;2024-03-17T02:13:54;8.40;99.90
47520;DHT22;33252;48.122;11.538;2024-03-17T02:16:21;8.40;99.90
47520;DHT22;33252;48.122;11.538;2024-03-17T02:18:46;8.40;99.90
47520;DHT22;33252;48.122;11.538;2024-03-17T02:21:13;8.40;99.90
47520;DHT22;33252;48.122;11.538;2024-03-17T02:23:41;8.50;99.90
47520;DHT22;33252;48.122;11.538;2024-03-17T02:26:06;8.40;99.90
47520;DHT22;33252;48.122;11.538;2024-03-17T02:28:39;8.40;99.90
47520;DHT22;33252;48.122;11.538;2024-03-17T02:31:06;8.40;99.90
47520;DHT22;33252;48.122;11.538;2024-03-17T02:33:32;8.40;99.90
47520;DHT22;33252;48.122;11.538;2024-03-17T02:35:59;8.40;99.90
47520;DHT22;33252;48.122;11.538;2024-03-17T02:38:25;8.30;99.90
47520;DHT22;33252;48.122;11.538;2024-03-17T02:41:09;8.30;99.90
47520;DHT22;33252;48.122;11.538;2024-03-17T02:43:36;8.40;99.90
47520;DHT22;33252;48.122;11.538;2024-03-17T02:46:04;8.40;99.90
47520;DHT22;33252;48.122;11.538;2024-03-17T02:48:33;8.40;99.90
47520;DHT22;33252;48.122;11.538;2024-03-17T02:50:58;8.40;99.90
47520;DHT22;33252;48.122;11.538;2024-03-17T02:53:24;8.40;99.90
47520;DHT22;33252;48.122;11.538;2024-03-17T02:55:49;8.40;99.90
47520;DHT22;33252;48.122;11.538;2024-03-17T02:58:15;8.40;99.90
47520;DHT22;33252;48.122;11.538;2024-03-17T03:00:41;8.40;99.90
47520;DHT22;33252;48.122;11.538;2024-03-17T03:03:06;8.40;99.90
47520;DHT22;33252;48.122;11.538;2024-03-17T03:05:32;8.40;99.90
47520;DHT22;33252;48.122;11.538;2024-03-17T03:07:57;8.30;99.90
47520;DHT22;33252;48.122;11.538;2024-03-17T03:10:23;8.30;99.90
47520;DHT22;33252;48.122;11.538;2024-03-17T03:12:49;8.30;99.90
47520;DHT22;33252;48.122;11.538;2024-03-17T03:15:14;8.30;99.90
47520;DHT22;33252;48.122;11.538;2024-03-17T03:17:40;8.20;99.90
47520;DHT22;33252;48.122;11.538;2024-03-17T03:20:05;8.20;99.90
47520;DHT22;33252;48.122;11.538;2024-03-17T03:22:31;8.20;99.90
47520;DHT22;33252;48.122;11.538;2024-03-17T03:24:57;8.20;99.90
47520;DHT22;33252;48.122;11.538;2024-03-17T03:27:23;8.20;99.90
47520;DHT22;33252;48.122;11.538;2024-03-17T03:29:49;8.10;99.90
47520;DHT22;33252;48.122;11.538;2024-03-17T03:32:15;8.10;99.90
47520;DHT22;33252;48.122;11.538;2024-03-17T03:34:41;8.20;99.90
47520;DHT22;33252;48.122;11.538;2024-03-17T03:37:06;8.10;99.90
47520;DHT22;33252;48.122;11.538;2024-03-17T03:39:34;8.10;99.90
47520;DHT22;33252;48.122;11.538;2024-03-17T03:42:01;8.00;99.90
47520;DHT22;33252;48.122;11.538;2024-03-17T03:44:27;8.10;99.90
47520;DHT22;33252;48.122;11.538;2024-03-17T03:46:53;8.10;99.90
47520;DHT22;33252;48.122;11.538;2024-03-17T03:49:24;8.10;99.90
47520;DHT22;33252;48.122;11.538;2024-03-17T03:51:50;8.10;99.90
47520;DHT22;33252;48.122;11.538;2024-03-17T03:54:15;8.20;99.90
47520;DHT22;33252;48.122;11.538;2024-03-17T03:56:41;8.10;99.90
47520;DHT22;33252;48.122;11.538;2024-03-17T03:59:06;8.00;99.90
47520;DHT22;33252;48.122;11.538;2024-03-17T04:01:32;8.00;99.90
47520;DHT22;33252;48.122;11.538;2024-03-17T04:03:57;8.10;99.90
47520;DHT22;33252;48.122;11.538;2024-03-17T04:06:23;8.20;99.90
47520;DHT22;33252;48.122;11.538;2024-03-17T04:08:48;8.10;99.90
47520;DHT22;33252;48.122;11.538;2024-03-17T04:11:14;8.10;99.90
47520;DHT22;33252;48.122;11.538;2024-03-17T04:13:40;8.00;99.90
47520;DHT22;33252;48.122;11.538;2024-03-17T04:16:07;8.00;99.90
47520;DHT22;33252;48.122;11.538;2024-03-17T04:18:33;8.00;99.90
47520;DHT22;33252;48.122;11.538;2024-03-17T04:21:04;8.00;99.90
47520;DHT22;33252;48.122;11.538;2024-03-17T04:23:30;8.10;99.90
47520;DHT22;33252;48.122;11.538;2024-03-17T04:25:58;8.10;99.90
47520;DHT22;33252;48.122;11.538;2024-03-17T04:28:24;8.00;99.90
47520;DHT22;33252;48.122;11.538;2024-03-17T04:30:50;8.00;99.90
47520;DHT22;33252;48.122;11.538;2024-03-17T04:33:15;8.00;99.90
47520;DHT22;33252;48.122;11.538;2024-03-17T04:35:44;8.00;99.90
47520;DHT22;33252;48.122;11.538;2024-03-17T04:38:10;8.00;99.90
47520;DHT22;33252;48.122;11.538;2024-03-17T04:40:44;8.00;99.90
47520;DHT22;33252;48.122;11.538;2024-03-17T04:43:10;8.00;99.90
47520;DHT22;33252;48.122;11.538;2024-03-17T04:45:36;8.00;99.90
47520;DHT22;33252;48.122;11.538;2024-03-17T04:48:03;8.10;99.90
47520;DHT22;33252;48.122;11.538;2024-03-17T04:50:28;8.00;99.90
47520;DHT22;33252;48.122;11.538;2024-03-17T04:53:00;8.00;99.90
47520;DHT22;33252;48.122;11.538;2024-03-17T04:55:26;8.00;99.90
47520;DHT22;33252;48.122;11.538;2024-03-17T04:57:51;8.00;99.90
47520;DHT22;33252;48.122;11.538;2024-03-17T05:00:17;8.00;99.90
47520;DHT22;33252;48.122;11.538;2024-03-17T05:02:44;8.00;99.90
47520;DHT22;33252;48.122;11.538;2024-03-17T05:05:10;8.00;99.90
47520;DHT22;33252;48.122;11.538;2024-03-17T05:07:36;8.00;99.90
47520;DHT22;33252;48.122;11.538;2024-03-17T05:10:03;8.00;99.90
47520;DHT22;33252;48.122;11.538;2024-03-17T05:12:29;8.00;99.90
47520;DHT22;33252;48.122;11.538;2024-03-17T05:14:54;8.00;99.90
47520;DHT22;33252;48.122;11.538;2024-03-17T05:17:20;8.10;99.90
47520;DHT22;33252;48.122;11.538;2024-03-17T05:19:45;8.00;99.90
47520;DHT22;33252;48.122;11.538;2024-03-17T05:22:11;8.00;99.90
47520;DHT22;33252;48.122;11.538;2024-03-17T05:24:36;8.00;99.90
47520;DHT22;33252;48.122;11.538;2024-03-17T05:27:02;8.00;99.90
47520;DHT22;33252;48.122;11.538;2024-03-17T05:29:28;8.00;99.90
47520;DHT22;33252;48.122;11.538;2024-03-17T05:31:54;8.00;99.90
47520;DHT22;33252;48.122;11.538;2024-03-17T05:34:19;8.00;99.90
47520;DHT22;33252;48.122;11.538;2024-03-17T05:36:45;7.90;99.90
47520;DHT22;33252;48.122;11.538;2024-03-17T05:39:12;8.00;99.90
47520;DHT22;33252;48.122;11.538;2024-03-17T05:41:38;8.00;99.90
47520;DHT22;33252;48.122;11.538;2024-03-17T05:44:03;8.10;99.90
47520;DHT22;33252;48.122;11.538;2024-03-17T05:46:29;8.10;99.90
47520;DHT22;33252;48.122;11.538;2024-03-17T05:48:55;8.00;99.90
47520;DHT22;33252;48.122;11.538;2024-03-17T05:51:21;8.10;99.90
47520;DHT22;33252;48.122;11.538;2024-03-17T05:53:46;8.10;99.90
47520;DHT22;33252;48.122;11.538;2024-03-17T05:56:12;8.10;99.90
47520;DHT22;33252;48.122;11.538;2024-03-17T05:58:39;8.10;99.90
47520;DHT22;33252;48.122;11.538;2024-03-17T06:01:05;8.10;99.90
47520;DHT22;33252;48.122;11.538;2024-03-17T06:03:32;8.10;99.90
47520;DHT22;33252;48.122;11.538;2024-03-17T06:06:01;8.10;99.90
47520;DHT22;33252;48.122;11.538;2024-03-17T06:08:27;8.10;99.90
47520;DHT22;33252;48.122;11.538;2024-03-17T06:10:52;8.20;99.90
47520;DHT22;33252;48.122;11.538;2024-03-17T06:13:18;8.10;99.90
47520;DHT22;33252;48.122;11.538;2024-03-17T06:15:44;8.20;99.90
47520;DHT22;33252;48.122;11.538;2024-03-17T06:18:13;8.20;99.90
47520;DHT22;33252;48.122;11.538;2024-03-17T06:20:40;8.20;99.90
47520;DHT22;33252;48.122;11.538;2024-03-17T06:23:14;8.30;99.90
47520;DHT22;33252;48.122;11.538;2024-03-17T06:25:42;8.30;99.90
47520;DHT22;33252;48.122;11.538;2024-03-17T06:28:09;8.30;99.90
47520;DHT22;33252;48.122;11.538;2024-03-17T06:30:42;8.20;99.90
47520;DHT22;33252;48.122;11.538;2024-03-17T06:33:10;8.30;99.90
47520;DHT22;33252;48.122;11.538;2024-03-17T06:35:37;8.30;99.90
47520;DHT22;33252;48.122;11.538;2024-03-17T06:38:02;8.30;99.90
47520;DHT22;33252;48.122;11.538;2024-03-17T06:40:28;8.30;99.90
47520;DHT22;33252;48.122;11.538;2024-03-17T06:42:54;8.30;99.90
47520;DHT22;33252;48.122;11.538;2024-03-17T06:45:19;8.20;99.90
47520;DHT22;33252;48.122;11.538;2024-03-17T06:47:46;8.20;99.90
47520;DHT22;33252;48.122;11.538;2024-03-17T06:50:12;8.40;99.90
47520;DHT22;33252;48.122;11.538;2024-03-17T06:52:37;8.20;99.90
47520;DHT22;33252;48.122;11.538;2024-03-17T06:55:03;8.20;99.90
47520;DHT22;33252;48.122;11.538;2024-03-17T06:57:29;8.40;99.90
47520;DHT22;33252;48.122;11.538;2024-03-17T06:59:55;8.50;99.90
47520;DHT22;33252;48.122;11.538;2024-03-17T07:02:20;8.50;99.90
47520;DHT22;33252;48.122;11.538;2024-03-17T07:04:47;8.50;99.90
47520;DHT22;33252;48.122;11.538;2024-03-17T07:07:13;8.60;99.90
47520;DHT22;33252;48.122;11.538;2024-03-17T07:09:40;8.60;99.90
47520;DHT22;33252;48.122;11.538;2024-03-17T07:12:07;8.60;99.90
47520;DHT22;33252;48.122;11.538;2024-03-17T07:14:32;8.60;99.90
47520;DHT22;33252;48.122;11.538;2024-03-17T07:16:58;8.70;99.90
47520;DHT22;33252;48.122;11.538;2024-03-17T07:19:23;8.50;99.90
47520;DHT22;33252;48.122;11.538;2024-03-17T07:21:49;8.50;99.90
47520;DHT22;33252;48.122;11.538;2024-03-17T07:24:14;8.60;99.90
47520;DHT22;33252;48.122;11.538;2024-03-17T07:26:40;8.70;99.90
47520;DHT22;33252;48.122;11.538;2024-03-17T07:29:05;8.80;99.90
47520;DHT22;33252;48.122;11.538;2024-03-17T07:31:31;8.80;99.90
47520;DHT22;33252;48.122;11.538;2024-03-17T07:33:57;8.90;99.90
47520;DHT22;33252;48.122;11.538;2024-03-17T07:36:23;8.80;99.90
47520;DHT22;33252;48.122;11.538;2024-03-17T07:38:48;8.90;99.90
47520;DHT22;33252;48.122;11.538;2024-03-17T07:41:14;9.00;99.90
47520;DHT22;33252;48.122;11.538;2024-03-17T07:43:40;9.20;99.90
47520;DHT22;33252;48.122;11.538;2024-03-17T07:46:07;9.30;99.90
47520;DHT22;33252;48.122;11.538;2024-03-17T07:48:34;9.30;99.90
47520;DHT22;33252;48.122;11.538;2024-03-17T07:51:11;9.40;99.90
47520;DHT22;33252;48.122;11.538;2024-03-17T07:53:39;9.30;99.90
47520;DHT22;33252;48.122;11.538;2024-03-17T07:56:11;9.40;99.90
47520;DHT22;33252;48.122;11.538;2024-03-17T07:58:39;9.50;99.90
47520;DHT22;33252;48.122;11.538;2024-03-17T08:01:05;9.50;99.90
47520;DHT22;33252;48.122;11.538;2024-03-17T08:03:32;9.50;99.90
47520;DHT22;33252;48.122;11.538;2024-03-17T08:05:59;9.60;99.90
47520;DHT22;33252;48.122;11.538;2024-03-17T08:08:25;9.60;99.90
47520;DHT22;33252;48.122;11.538;2024-03-17T08:10:50;9.70;99.90
47520;DHT22;33252;48.122;11.538;2024-03-17T08:13:20;9.70;99.90
47520;DHT22;33252;48.122;11.538;2024-03-17T08:15:46;9.80;99.90
47520;DHT22;33252;48.122;11.538;2024-03-17T08:18:12;9.80;99.90
47520;DHT22;33252;48.122;11.538;2024-03-17T08:20:42;9.90;99.90
47520;DHT22;33252;48.122;11.538;2024-03-17T08:23:08;9.80;99.90
47520;DHT22;33252;48.122;11.538;2024-03-17T08:25:34;10.00;99.90
47520;DHT22;33252;48.122;11.538;2024-03-17T08:28:01;10.10;99.90
47520;DHT22;33252;48.122;11.538;2024-03-17T08:30:27;10.10;99.90
47520;DHT22;33252;48.122;11.538;2024-03-17T08:32:52;9.90;99.90
47520;DHT22;33252;48.122;11.538;2024-03-17T08:35:18;9.90;99.90
47520;DHT22;33252;48.122;11.538;2024-03-17T08:37:43;9.90;99.90
47520;DHT22;33252;48.122;11.538;2024-03-17T08:40:10;10.00;99.90
47520;DHT22;33252;48.122;11.538;2024-03-17T08:42:36;10.10;99.90
47520;DHT22;33252;48.122;11.538;2024-03-17T08:45:02;10.30;99.90
47520;DHT22;33252;48.122;11.538;2024-03-17T08:47:28;10.30;99.90
47520;DHT22;33252;48.122;11.538;2024-03-17T08:49:54;10.30;99.90
47520;DHT22;33252;48.122;11.538;2024-03-17T08:52:19;10.40;99.90
47520;DHT22;33252;48.122;11.538;2024-03-17T08:54:46;10.60;99.90
47520;DHT22;33252;48.122;11.538;2024-03-17T08:57:13;10.70;99.90
47520;DHT22;33252;48.122;11.538;2024-03-17T08:59:38;10.80;99.90
47520;DHT22;33252;48.122;11.538;2024-03-17T09:02:04;10.80;99.90
47520;DHT22;33252;48.122;11.538;2024-03-17T09:04:30;10.80;99.90
47520;DHT22;33252;48.122;11.538;2024-03-17T09:06:56;10.60;99.90
47520;DHT22;33252;48.122;11.538;2024-03-17T09:09:22;10.60;99.90
47520;DHT22;33252;48.122;11.538;2024-03-17T09:11:48;10.60;99.90
47520;DHT22;33252;48.122;11.538;2024-03-17T09:14:13;10.60;99.90
47520;DHT22;33252;48.122;11.538;2024-03-17T09:16:39;10.60;99.90
47520;DHT22;33252;48.122;11.538;2024-03-17T09:19:04;10.70;99.90
47520;DHT22;33252;48.122;11.538;2024-03-17T09:21:30;10.70;99.90
47520;DHT22;33252;48.122;11.538;2024-03-17T09:23:56;10.70;99.90
47520;DHT22;33252;48.122;11.538;2024-03-17T09:26:21;10.70;99.90
47520;DHT22;33252;48.122;11.538;2024-03-17T09:28:47;10.70;99.90
47520;DHT22;33252;48.122;11.538;2024-03-17T09:31:13;10.70;99.90
47520;DHT22;33252;48.122;11.538;2024-03-17T09:33:38;10.80;99.90
47520;DHT22;33252;48.122;11.538;2024-03-17T09:36:08;10.90;99.90
47520;DHT22;33252;48.122;11.538;2024-03-17T09:38:38;11.00;99.90
47520;DHT22;33252;48.122;11.538;2024-03-17T09:41:05;11.10;99.90
47520;DHT22;33252;48.122;11.538;2024-03-17T09:43:33;11.10;99.90
47520;DHT22;33252;48.122;11.538;2024-03-17T09:46:01;10.90;99.90
47520;DHT22;33252;48.122;11.538;2024-03-17T09:48:28;10.90;99.90
47520;DHT22;33252;48.122;11.538;2024-03-17T09:51:01;10.90;99.90
47520;DHT22;33252;48.122;11.538;2024-03-17T09:53:34;11.00;99.90
47520;DHT22;33252;48.122;11.538;2024-03-17T09:56:09;11.00;99.90
47520;DHT22;33252;48.122;11.538;2024-03-17T09:58:36;11.00;99.90
47520;DHT22;33252;48.122;11.538;2024-03-17T10:01:02;11.10;99.90
47520;DHT22;33252;48.122;11.538;2024-03-17T10:06:19;11.10;99.90
47520;DHT22;33252;48.122;11.538;2024-03-17T10:09:04;11.20;99.90
47520;DHT22;33252;48.122;11.538;2024-03-17T10:11:35;11.20;99.90
47520;DHT22;33252;48.122;11.538;2024-03-17T10:14:06;11.30;99.90
47520;DHT22;33252;48.122;11.538;2024-03-17T10:16:37;11.30;99.90
47520;DHT22;33252;48.122;11.538;2024-03-17T10:19:10;11.30;99.90
47520;DHT22;33252;48.122;11.538;2024-03-17T10:21:38;11.40;99.90
47520;DHT22;33252;48.122;11.538;2024-03-17T10:24:11;11.60;99.90
47520;DHT22;33252;48.122;11.538;2024-03-17T10:26:44;11.60;99.90
47520;DHT22;33252;48.122;11.538;2024-03-17T10:29:23;11.60;99.90
47520;DHT22;33252;48.122;11.538;2024-03-17T10:31:59;11.60;99.90
47520;DHT22;33252;48.122;11.538;2024-03-17T10:34:28;11.60;99.90
47520;DHT22;33252;48.122;11.538;2024-03-17T10:37:13;11.70;99.50
47520;DHT22;33252;48.122;11.538;2024-03-17T10:39:41;11.70;99.80
47520;DHT22;33252;48.122;11.538;2024-03-17T10:42:08;11.80;99.90
47520;DHT22;33252;48.122;11.538;2024-03-17T10:44:36;11.80;99.20
47520;DHT22;33252;48.122;11.538;2024-03-17T10:47:03;11.80;97.10
47520;DHT22;33252;48.122;11.538;2024-03-17T10:49:35;11.90;97.40
47520;DHT22;33252;48.122;11.538;2024-03-17T10:52:03;12.00;96.40
47520;DHT22;33252;48.122;11.538;2024-03-17T10:54:30;12.00;96.50
47520;DHT22;33252;48.122;11.538;2024-03-17T10:56:57;12.10;96.40
47520;DHT22;33252;48.122;11.538;2024-03-17T10:59:40;12.20;96.20
47520;DHT22;33252;48.122;11.538;2024-03-17T11:04:50;12.40;97.70
47520;DHT22;33252;48.122;11.538;2024-03-17T11:07:17;12.50;96.40
47520;DHT22;33252;48.122;11.538;2024-03-17T11:09:45;12.60;96.40
47520;DHT22;33252;48.122;11.538;2024-03-17T11:12:46;12.60;95.00
47520;DHT22;33252;48.122;11.538;2024-03-17T11:17:48;12.60;95.10
47520;DHT22;33252;48.122;11.538;2024-03-17T11:20:28;12.70;94.70
47520;DHT22;33252;48.122;11.538;2024-03-17T11:22:58;12.60;95.10
47520;DHT22;33252;48.122;11.538;2024-03-17T11:28:06;12.80;94.30
47520;DHT22;33252;48.122;11.538;2024-03-17T11:30:42;12.70;94.70
47520;DHT22;33252;48.122;11.538;2024-03-17T11:41:37;12.80;94.00
47520;DHT22;33252;48.122;11.538;2024-03-17T11:46:58;12.90;93.80
47520;DHT22;33252;48.122;11.538;2024-03-17T11:49:35;12.90;94.50
47520;DHT22;33252;48.122;11.538;2024-03-17T11:52:10;13.10;93.90
47520;DHT22;33252;48.122;11.538;2024-03-17T11:54:46;13.10;93.50
47520;DHT22;33252;48.122;11.538;2024-03-17T11:57:15;13.30;93.50
47520;DHT22;33252;48.122;11.538;2024-03-17T11:59:45;13.30;93.20
47520;DHT22;33252;48.122;11.538;2024-03-17T12:02:27;13.30;93.90
47520;DHT22;33252;48.122;11.538;2024-03-17T12:04:56;13.40;92.70
47520;DHT22;33252;48.122;11.538;2024-03-17T12:07:22;13.10;93.40
47520;DHT22;33252;48.122;11.538;2024-03-17T12:09:50;13.30;93.50
47520;DHT22;33252;48.122;11.538;2024-03-17T12:12:22;13.10;93.20
47520;DHT22;33252;48.122;11.538;2024-03-17T12:14:49;13.20;92.50
47520;DHT22;33252;48.122;11.538;2024-03-17T12:17:23;13.10;93.50
47520;DHT22;33252;48.122;11.538;2024-03-17T12:19:49;13.20;92.90
47520;DHT22;33252;48.122;11.538;2024-03-17T12:22:25;13.20;92.70
47520;DHT22;33252;48.122;11.538;2024-03-17T12:24:53;13.20;92.90
47520;DHT22;33252;48.122;11.538;2024-03-17T12:27:21;13.10;93.10
47520;DHT22;33252;48.122;11.538;2024-03-17T12:29:51;13.20;93.00
47520;DHT22;33252;48.122;11.538;2024-03-17T12:32:24;13.10;93.40
47520;DHT22;33252;48.122;11.538;2024-03-17T12:34:50;13.10;92.80
47520;DHT22;33252;48.122;11.538;2024-03-17T12:37:27;13.10;92.80
47520;DHT22;33252;48.122;11.538;2024-03-17T12:40:02;13.10;92.70
47520;DHT22;33252;48.122;11.538;2024-03-17T12:42:28;13.20;93.60
47520;DHT22;33252;48.122;11.538;2024-03-17T12:45:01;13.50;92.80
47520;DHT22;33252;48.122;11.538;2024-03-17T12:47:32;13.60;92.50
47520;DHT22;33252;48.122;11.538;2024-03-17T12:50:01;13.50;92.40
47520;DHT22;33252;48.122;11.538;2024-03-17T12:52:32;13.50;92.70
47520;DHT22;33252;48.122;11.538;2024-03-17T12:57:51;13.60;93.20
47520;DHT22;33252;48.122;11.538;2024-03-17T13:00:36;13.90;92.80
47520;DHT22;33252;48.122;11.538;2024-03-17T13:03:03;13.80;92.00
47520;DHT22;33252;48.122;11.538;2024-03-17T13:05:30;14.00;92.70
47520;DHT22;33252;48.122;11.538;2024-03-17T13:07:57;14.00;92.30
47520;DHT22;33252;48.122;11.538;2024-03-17T13:10:24;14.00;92.10
47520;DHT22;33252;48.122;11.538;2024-03-17T13:12:59;14.00;92.70
47520;DHT22;33252;48.122;11.538;2024-03-17T13:15:26;13.90;90.90
47520;DHT22;33252;48.122;11.538;2024-03-17T13:17:52;13.80;91.60
47520;DHT22;33252;48.122;11.538;2024-03-17T13:20:17;14.00;91.60
47520;DHT22;33252;48.122;11.538;2024-03-17T13:22:44;13.90;91.70
47520;DHT22;33252;48.122;11.538;2024-03-17T13:25:15;13.80;92.00
47520;DHT22;33252;48.122;11.538;2024-03-17T13:27:42;13.70;92.10
47520;DHT22;33252;48.122;11.538;2024-03-17T13:30:08;13.70;92.00
47520;DHT22;33252;48.122;11.538;2024-03-17T13:32:37;13.70;92.00
47520;DHT22;33252;48.122;11.538;2024-03-17T13:35:03;13.70;92.40
47520;DHT22;33252;48.122;11.538;2024-03-17T13:37:30;13.70;92.30
47520;DHT22;33252;48.122;11.538;2024-03-17T13:39:56;13.70;91.70
47520;DHT22;33252;48.122;11.538;2024-03-17T13:42:21;13.70;91.80
47520;DHT22;33252;48.122;11.538;2024-03-17T13:44:47;13.80;92.40
47520;DHT22;33252;48.122;11.538;2024-03-17T13:47:14;14.00;92.10
47520;DHT22;33252;48.122;11.538;2024-03-17T13:49:40;14.00;91.50
47520;DHT22;33252;48.122;11.538;2024-03-17T13:52:05;14.10;91.90
47520;DHT22;33252;48.122;11.538;2024-03-17T13:54:31;14.10;91.40
47520;DHT22;33252;48.122;11.538;2024-03-17T13:56:57;14.10;91.90
47520;DHT22;33252;48.122;11.538;2024-03-17T13:59:23;14.20;91.60
47520;DHT22;33252;48.122;11.538;2024-03-17T14:01:50;14.10;91.60
47520;DHT22;33252;48.122;11.538;2024-03-17T14:04:16;14.10;91.40
47520;DHT22;33252;48.122;11.538;2024-03-17T14:06:46;14.30;91.90
47520;DHT22;33252;48.122;11.538;2024-03-17T14:09:15;14.30;91.00
47520;DHT22;33252;48.122;11.538;2024-03-17T14:11:42;14.20;91.30
47520;DHT22;33252;48.122;11.538;2024-03-17T14:14:08;14.20;91.30
47520;DHT22;33252;48.122;11.538;2024-03-17T14:16:33;14.30;91.80
47520;DHT22;33252;48.122;11.538;2024-03-17T14:19:00;14.20;91.60
47520;DHT22;33252;48.122;11.538;2024-03-17T14:21:27;14.10;92.00
47520;DHT22;33252;48.122;11.538;2024-03-17T14:23:53;14.10;92.30
47520;DHT22;33252;48.122;11.538;2024-03-17T14:26:19;14.00;91.90
47520;DHT22;33252;48.122;11.538;2024-03-17T14:28:44;14.00;92.10
47520;DHT22;33252;48.122;11.538;2024-03-17T14:31:10;13.90;92.20
47520;DHT22;33252;48.122;11.538;2024-03-17T14:33:36;13.90;92.20
47520;DHT22;33252;48.122;11.538;2024-03-17T14:36:02;13.80;92.50
47520;DHT22;33252;48.122;11.538;2024-03-17T14:38:28;13.80;92.50
47520;DHT22;33252;48.122;11.538;2024-03-17T14:40:53;13.70;92.00
47520;DHT22;33252;48.122;11.538;2024-03-17T14:43:19;13.70;92.50
47520;DHT22;33252;48.122;11.538;2024-03-17T14:45:45;13.70;92.40
47520;DHT22;33252;48.122;11.538;2024-03-17T14:48:11;13.60;92.70
47520;DHT22;33252;48.122;11.538;2024-03-17T14:50:38;13.40;92.60
47520;DHT22;33252;48.122;11.538;2024-03-17T14:53:04;13.40;92.40
47520;DHT22;33252;48.122;11.538;2024-03-17T14:55:30;13.30;92.70
47520;DHT22;33252;48.122;11.538;2024-03-17T14:57:56;13.40;92.90
47520;DHT22;33252;48.122;11.538;2024-03-17T15:00:22;13.40;92.50
47520;DHT22;33252;48.122;11.538;2024-03-17T15:02:50;13.40;92.50
47520;DHT22;33252;48.122;11.538;2024-03-17T15:05:16;13.40;93.00
47520;DHT22;33252;48.122;11.538;2024-03-17T15:07:45;13.30;92.80
47520;DHT22;33252;48.122;11.538;2024-03-17T15:10:11;13.30;92.80
47520;DHT22;33252;48.122;11.538;2024-03-17T15:12:39;13.30;92.70
47520;DHT22;33252;48.122;11.538;2024-03-17T15:15:06;13.30;92.90
47520;DHT22;33252;48.122;11.538;2024-03-17T15:17:34;13.30;93.10
47520;DHT22;33252;48.122;11.538;2024-03-17T15:19:59;13.30;93.10
47520;DHT22;33252;48.122;11.538;2024-03-17T15:22:26;13.20;92.80
47520;DHT22;33252;48.122;11.538;2024-03-17T15:24:52;13.20;92.80
47520;DHT22;33252;48.122;11.538;2024-03-17T15:27:18;13.20;92.80
47520;DHT22;33252;48.122;11.538;2024-03-17T15:29:44;13.10;92.90
47520;DHT22;33252;48.122;11.538;2024-03-17T15:32:09;13.20;93.30
47520;DHT22;33252;48.122;11.538;2024-03-17T15:34:36;13.10;93.30
47520;DHT22;33252;48.122;11.538;2024-03-17T15:37:03;13.10;92.90
47520;DHT22;33252;48.122;11.538;2024-03-17T15:39:29;13.10;93.00
47520;DHT22;33252;48.122;11.538;2024-03-17T15:41:55;13.10;92.90
47520;DHT22;33252;48.122;11.538;2024-03-17T15:44:20;13.20;93.20
47520;DHT22;33252;48.122;11.538;2024-03-17T15:46:48;13.10;93.50
47520;DHT22;33252;48.122;11.538;2024-03-17T15:49:14;13.20;94.30
47520;DHT22;33252;48.122;11.538;2024-03-17T15:51:40;13.10;93.60